Time;durP1;ratioP1;P1;durP2;ratioP2;P2;SDS_P1;SDS_P2;PMS_P1;PMS_P2;Temp;Humidity;BMP_temperature;BMP_pressure;BME280_temperature;BME280_humidity;BME280_pressure;Samples;Min_cycle;Max_cycle;Signal;HPM_P1;HPM_P2
2023/12/21 00:01:47;;;;;;;3.17;1.27;;;6.20;99.90;;;;;;5089178;28;20200;-76
2023/12/21 00:04:14;;;;;;;3.60;1.27;;;6.20;99.90;;;;;;5108169;28;20192;-76
2023/12/21 00:06:41;;;;;;;3.20;1.70;;;6.10;99.90;;;;;;5115533;27;20223;-76
2023/12/21 00:09:08;;;;;;;2.90;1.60;;;6.10;99.90;;;;;;5085180;28;20299;-77
2023/12/21 00:11:35;;;;;;;2.80;1.73;;;6.00;99.90;;;;;;5119049;27;20190;-75
2023/12/21 00:14:02;;;;;;;3.17;1.70;;;6.10;99.90;;;;;;5081838;28;20219;-74
2023/12/21 00:16:30;;;;;;;1.70;1.40;;;6.10;99.90;;;;;;5100578;28;20264;-74
2023/12/21 00:18:58;;;;;;;2.07;1.47;;;6.10;99.90;;;;;;5112020;28;20208;-74
2023/12/21 00:21:28;;;;;;;2.43;1.57;;;6.10;99.90;;;;;;5107549;27;20197;-75
2023/12/21 00:23:55;;;;;;;2.00;1.33;;;6.10;99.90;;;;;;5093552;28;20231;-74
2023/12/21 00:26:22;;;;;;;1.40;1.30;;;6.20;99.90;;;;;;5092834;28;20200;-75
2023/12/21 00:28:49;;;;;;;2.00;1.33;;;6.20;99.90;;;;;;5083269;28;20205;-75
2023/12/21 00:31:16;;;;;;;4.00;1.63;;;6.20;99.90;;;;;;5112935;28;20237;-75
2023/12/21 00:33:43;;;;;;;2.60;1.53;;;6.10;99.90;;;;;;5089145;28;20318;-75
2023/12/21 00:36:18;;;;;;;4.47;1.50;;;6.10;99.90;;;;;;5104256;28;20208;-75
2023/12/21 00:38:45;;;;;;;1.87;1.30;;;6.10;99.90;;;;;;5095079;28;20245;-74
2023/12/21 00:41:12;;;;;;;2.23;1.20;;;6.10;99.90;;;;;;5091668;28;20273;-75
2023/12/21 00:43:39;;;;;;;5.47;1.93;;;6.10;99.90;;;;;;5102852;28;20296;-76
2023/12/21 00:46:08;;;;;;;2.50;1.30;;;6.10;99.90;;;;;;5117517;27;20199;-76
2023/12/21 00:48:36;;;;;;;3.57;1.67;;;6.10;99.90;;;;;;5082154;28;20518;-75
2023/12/21 00:51:05;;;;;;;3.50;1.73;;;6.10;99.90;;;;;;5111737;27;20704;-75
2023/12/21 00:53:34;;;;;;;3.03;1.70;;;6.10;99.90;;;;;;5113511;28;20223;-74
2023/12/21 00:56:01;;;;;;;2.50;1.80;;;6.00;99.90;;;;;;5113144;27;20188;-76
2023/12/21 00:58:28;;;;;;;3.20;1.67;;;6.00;99.90;;;;;;5108156;28;20661;-77
2023/12/21 01:00:55;;;;;;;2.23;1.53;;;6.00;99.90;;;;;;5114199;27;20684;-78
2023/12/21 01:03:22;;;;;;;1.30;1.20;;;5.90;99.90;;;;;;5112707;28;20275;-76
2023/12/21 01:05:52;;;;;;;3.27;1.83;;;5.90;99.90;;;;;;5091753;28;20196;-76
2023/12/21 01:08:19;;;;;;;2.27;1.30;;;5.90;99.90;;;;;;5086147;28;20561;-77
2023/12/21 01:10:52;;;;;;;2.30;1.40;;;5.90;99.90;;;;;;5112062;27;20200;-77
2023/12/21 01:13:19;;;;;;;1.70;1.33;;;5.90;99.90;;;;;;5112871;28;20624;-77
2023/12/21 01:15:46;;;;;;;3.90;1.50;;;5.90;99.90;;;;;;5088460;28;20289;-76
2023/12/21 01:18:13;;;;;;;1.33;1.20;;;5.90;99.90;;;;;;5097062;28;20233;-77
2023/12/21 01:20:41;;;;;;;2.97;1.67;;;6.00;99.90;;;;;;5098657;27;20235;-75
2023/12/21 01:23:08;;;;;;;1.53;1.20;;;6.00;99.90;;;;;;5109448;28;20253;-75
2023/12/21 01:25:35;;;;;;;1.27;1.13;;;6.00;99.90;;;;;;5112945;27;20208;-75
2023/12/21 01:28:07;;;;;;;1.50;1.40;;;6.00;99.90;;;;;;5120939;27;20204;-75
2023/12/21 01:30:34;;;;;;;1.60;1.30;;;7.00;99.90;;;;;;5091639;27;20191;-75
2023/12/21 01:33:01;;;;;;;5.40;1.50;;;6.00;99.90;;;;;;5089101;28;20219;-75
2023/12/21 01:35:31;;;;;;;5.60;1.60;;;6.00;99.90;;;;;;5084881;27;20223;-75
2023/12/21 01:37:58;;;;;;;2.97;1.57;;;6.00;99.90;;;;;;5095754;27;20538;-75
2023/12/21 01:40:25;;;;;;;2.73;1.83;;;6.00;99.90;;;;;;5103280;28;20196;-76
2023/12/21 01:42:52;;;;;;;5.27;1.83;;;6.00;99.90;;;;;;5108132;28;20277;-74
2023/12/21 01:45:21;;;;;;;4.10;1.67;;;5.90;99.90;;;;;;5102203;28;20211;-74
2023/12/21 01:47:49;;;;;;;2.43;1.37;;;5.90;99.90;;;;;;5107466;28;20195;-74
2023/12/21 01:50:16;;;;;;;6.20;1.73;;;5.90;99.90;;;;;;5109618;28;20296;-74
2023/12/21 01:52:44;;;;;;;5.40;1.60;;;5.90;99.90;;;;;;5109523;28;20199;-74
2023/12/21 01:55:13;;;;;;;6.23;1.93;;;5.90;99.90;;;;;;5081090;28;20629;-74
2023/12/21 01:57:41;;;;;;;3.27;1.40;;;5.90;99.90;;;;;;5106243;28;20193;-74
2023/12/21 02:00:09;;;;;;;2.27;1.50;;;6.00;99.90;;;;;;5103265;28;20195;-74
2023/12/21 02:02:37;;;;;;;2.73;1.43;;;6.00;99.90;;;;;;5107079;27;20256;-74
2023/12/21 02:05:06;;;;;;;6.23;1.80;;;6.00;99.90;;;;;;5104083;28;20184;-75
2023/12/21 02:07:33;;;;;;;2.60;1.30;;;6.00;99.90;;;;;;5104510;28;20288;-75
2023/12/21 02:10:01;;;;;;;2.83;1.47;;;6.00;99.90;;;;;;5091134;28;20253;-74
2023/12/21 02:12:28;;;;;;;3.63;1.63;;;6.00;99.90;;;;;;5107767;27;20194;-74
2023/12/21 02:14:55;;;;;;;5.43;1.70;;;6.00;99.90;;;;;;5101535;28;20208;-74
2023/12/21 02:17:23;;;;;;;2.30;1.50;;;6.00;99.90;;;;;;5098569;27;20219;-75
2023/12/21 02:19:52;;;;;;;4.93;2.23;;;6.00;99.90;;;;;;5090273;28;20212;-75
2023/12/21 02:22:21;;;;;;;4.93;2.10;;;6.00;99.90;;;;;;5106992;27;20184;-75
2023/12/21 02:24:50;;;;;;;3.17;2.30;;;6.10;99.90;;;;;;5086860;28;20669;-74
2023/12/21 02:27:17;;;;;;;5.47;2.10;;;6.10;99.90;;;;;;5110509;27;20187;-72
2023/12/21 02:29:44;;;;;;;2.00;1.43;;;6.10;99.90;;;;;;5104292;28;20207;-76
2023/12/21 02:32:11;;;;;;;3.77;1.90;;;6.10;99.90;;;;;;5106954;27;20191;-74
2023/12/21 02:34:38;;;;;;;6.33;2.23;;;6.10;99.90;;;;;;5103445;28;20216;-74
2023/12/21 02:37:07;;;;;;;4.63;1.90;;;6.10;99.90;;;;;;5103250;27;20191;-75
2023/12/21 02:39:35;;;;;;;3.23;1.90;;;6.10;99.90;;;;;;5098664;28;20180;-75
2023/12/21 02:42:04;;;;;;;4.10;1.97;;;6.10;99.90;;;;;;5102967;27;20718;-74
2023/12/21 02:44:31;;;;;;;3.77;2.30;;;6.10;99.90;;;;;;5103863;28;20180;-74
2023/12/21 02:46:58;;;;;;;5.87;2.20;;;6.20;99.90;;;;;;5093964;28;20633;-74
2023/12/21 02:49:25;;;;;;;5.17;1.73;;;6.20;99.90;;;;;;5098070;28;20189;-74
2023/12/21 02:51:55;;;;;;;3.93;2.03;;;6.20;99.90;;;;;;5089488;27;20203;-75
2023/12/21 02:54:26;;;;;;;3.33;1.70;;;6.10;99.90;;;;;;5113172;27;20212;-74
2023/12/21 02:56:53;;;;;;;3.93;1.70;;;6.10;99.90;;;;;;5099938;28;20192;-74
2023/12/21 02:59:21;;;;;;;3.10;1.57;;;6.20;99.90;;;;;;5093714;28;20254;-73
2023/12/21 03:01:49;;;;;;;1.73;1.30;;;6.10;99.90;;;;;;5108029;27;20188;-73
2023/12/21 03:04:16;;;;;;;1.73;1.30;;;6.20;99.90;;;;;;5103978;27;20196;-73
2023/12/21 03:06:43;;;;;;;1.63;1.50;;;6.20;99.90;;;;;;5104097;28;20204;-73
2023/12/21 03:09:13;;;;;;;2.70;1.43;;;6.30;99.90;;;;;;5093390;28;20200;-74
2023/12/21 03:11:40;;;;;;;3.47;1.77;;;6.40;99.90;;;;;;5104709;28;20202;-73
2023/12/21 03:14:07;;;;;;;1.20;1.10;;;6.40;99.90;;;;;;5115695;27;20284;-73
2023/12/21 03:16:39;;;;;;;2.73;1.67;;;6.40;99.90;;;;;;5104557;28;20642;-73
2023/12/21 03:19:06;;;;;;;2.47;1.90;;;6.50;99.90;;;;;;5112743;27;20191;-73
2023/12/21 03:21:33;;;;;;;2.20;2.00;;;6.50;99.90;;;;;;5080996;28;20265;-73
2023/12/21 03:24:03;;;;;;;1.90;1.67;;;6.50;99.90;;;;;;5108064;27;20203;-73
2023/12/21 03:26:31;;;;;;;1.47;1.27;;;6.50;99.90;;;;;;5105050;28;20552;-73
2023/12/21 03:28:58;;;;;;;2.63;1.73;;;6.40;99.90;;;;;;5100597;28;20596;-74
2023/12/21 03:31:25;;;;;;;1.87;1.60;;;6.40;99.90;;;;;;5109340;28;20191;-75
2023/12/21 03:33:54;;;;;;;2.70;2.00;;;6.40;99.90;;;;;;5095846;28;20273;-74
2023/12/21 03:36:21;;;;;;;2.67;2.30;;;6.40;99.90;;;;;;5102657;28;20602;-74
2023/12/21 03:38:50;;;;;;;4.47;2.83;;;6.40;99.90;;;;;;5102938;28;20681;-74
2023/12/21 03:41:22;;;;;;;4.33;2.70;;;6.40;99.90;;;;;;5106182;28;20199;-74
2023/12/21 03:43:52;;;;;;;3.60;2.60;;;6.40;99.90;;;;;;5114489;28;20202;-74
2023/12/21 03:46:22;;;;;;;3.33;2.50;;;6.30;99.90;;;;;;5097073;28;20188;-75
2023/12/21 03:48:49;;;;;;;2.63;2.30;;;6.30;99.90;;;;;;5105372;28;20275;-76
2023/12/21 03:51:17;;;;;;;6.10;2.50;;;6.30;99.90;;;;;;5104331;28;20713;-74
2023/12/21 03:53:44;;;;;;;4.30;2.30;;;6.30;99.90;;;;;;5089324;28;20352;-75
2023/12/21 03:56:11;;;;;;;3.63;2.30;;;6.30;99.90;;;;;;5102427;28;20207;-75
2023/12/21 03:58:38;;;;;;;2.57;2.10;;;6.30;99.90;;;;;;5086453;28;20623;-74
2023/12/21 04:01:05;;;;;;;3.83;2.37;;;6.40;99.90;;;;;;5087733;28;20618;-75
2023/12/21 04:03:32;;;;;;;5.37;2.70;;;6.30;99.90;;;;;;5093087;28;20192;-77
2023/12/21 04:05:59;;;;;;;3.33;2.17;;;6.40;99.90;;;;;;5088225;28;20693;-75
2023/12/21 04:08:28;;;;;;;2.53;2.33;;;6.30;99.90;;;;;;5086864;28;20204;-73
2023/12/21 04:10:55;;;;;;;8.33;3.80;;;6.30;99.90;;;;;;5098022;28;20213;-73
2023/12/21 04:13:22;;;;;;;7.57;3.90;;;6.30;99.90;;;;;;5106562;28;20240;-73
2023/12/21 04:15:51;;;;;;;9.40;4.37;;;6.40;99.90;;;;;;5096904;28;20212;-73
2023/12/21 04:18:19;;;;;;;7.97;4.10;;;6.40;99.90;;;;;;5113052;28;20191;-73
2023/12/21 04:20:46;;;;;;;5.33;3.43;;;6.40;99.90;;;;;;5106820;28;20192;-76
2023/12/21 04:23:13;;;;;;;5.53;3.17;;;6.40;99.90;;;;;;5112912;28;20189;-75
2023/12/21 04:25:41;;;;;;;5.67;2.83;;;6.40;99.90;;;;;;5098895;28;20545;-75
2023/12/21 04:28:08;;;;;;;2.63;2.43;;;6.40;99.90;;;;;;5106516;28;20192;-75
2023/12/21 04:30:35;;;;;;;3.10;2.43;;;6.40;99.90;;;;;;5109264;28;20393;-76
2023/12/21 04:33:04;;;;;;;3.70;1.80;;;6.50;99.90;;;;;;5111063;27;20638;-75
2023/12/21 04:35:31;;;;;;;2.67;2.23;;;6.40;99.90;;;;;;5102913;28;20207;-75
2023/12/21 04:37:58;;;;;;;3.30;2.33;;;6.50;99.90;;;;;;5093942;27;20552;-75
2023/12/21 04:40:25;;;;;;;3.77;2.67;;;6.50;99.90;;;;;;5118324;27;20195;-75
2023/12/21 04:42:55;;;;;;;4.20;2.20;;;6.50;99.90;;;;;;5110506;28;20551;-75
2023/12/21 04:45:22;;;;;;;5.97;2.03;;;6.50;99.90;;;;;;5118209;27;20187;-75
2023/12/21 04:47:49;;;;;;;3.13;1.80;;;6.50;99.90;;;;;;5088619;28;20299;-75
2023/12/21 04:50:16;;;;;;;2.27;2.00;;;6.50;99.90;;;;;;5120926;27;20239;-74
2023/12/21 04:52:46;;;;;;;2.53;1.70;;;6.50;99.90;;;;;;5107304;28;20203;-74
2023/12/21 04:55:14;;;;;;;4.70;2.40;;;6.50;99.90;;;;;;5109622;27;20571;-73
2023/12/21 04:57:41;;;;;;;4.20;2.20;;;6.60;99.90;;;;;;5088858;28;20231;-74
2023/12/21 05:00:11;;;;;;;1.87;1.60;;;6.60;99.90;;;;;;5099817;28;20199;-73
2023/12/21 05:02:38;;;;;;;4.63;2.00;;;6.50;99.90;;;;;;5107352;28;20215;-73
2023/12/21 05:05:08;;;;;;;1.70;1.60;;;6.50;99.90;;;;;;5110411;27;20192;-76
2023/12/21 05:07:55;;;;;;;2.20;1.83;;;6.60;99.90;;;;;;5106629;28;20297;-73
2023/12/21 05:10:22;;;;;;;2.03;1.67;;;6.50;99.90;;;;;;5089734;28;20207;-73
2023/12/21 05:12:50;;;;;;;2.10;1.87;;;6.50;99.90;;;;;;5108280;28;20565;-73
2023/12/21 05:15:19;;;;;;;2.43;1.60;;;6.50;99.90;;;;;;5102584;28;20212;-74
2023/12/21 05:17:46;;;;;;;1.87;1.50;;;6.50;99.90;;;;;;5094582;28;20207;-76
2023/12/21 05:20:13;;;;;;;1.70;1.60;;;6.50;99.90;;;;;;5116299;27;20193;-75
2023/12/21 05:22:43;;;;;;;1.70;1.43;;;6.50;99.90;;;;;;5087466;28;20205;-76
2023/12/21 05:25:13;;;;;;;1.87;1.53;;;6.50;99.90;;;;;;5093444;28;20207;-76
2023/12/21 05:27:40;;;;;;;3.83;1.40;;;6.50;99.90;;;;;;5086709;28;20196;-77
2023/12/21 05:30:11;;;;;;;1.50;1.40;;;6.60;99.90;;;;;;5097615;27;20196;-77
2023/12/21 05:32:39;;;;;;;2.67;1.70;;;6.60;99.90;;;;;;5076908;28;20204;-75
2023/12/21 05:35:07;;;;;;;2.10;1.40;;;6.60;99.90;;;;;;5107127;27;20200;-76
2023/12/21 05:37:34;;;;;;;2.60;1.33;;;6.60;99.90;;;;;;5093708;28;20207;-74
2023/12/21 05:40:01;;;;;;;1.40;1.30;;;6.60;99.90;;;;;;5113340;27;20204;-74
2023/12/21 05:42:28;;;;;;;2.57;1.63;;;6.60;99.90;;;;;;5097712;28;20199;-76
2023/12/21 05:44:55;;;;;;;1.60;1.30;;;6.60;99.90;;;;;;5112131;27;20298;-76
2023/12/21 05:47:22;;;;;;;2.07;1.50;;;6.60;99.90;;;;;;5104498;28;20204;-76
2023/12/21 05:49:51;;;;;;;2.23;1.40;;;6.60;99.90;;;;;;5088820;27;20229;-76
2023/12/21 05:52:18;;;;;;;2.43;1.50;;;6.60;99.90;;;;;;5083537;28;20604;-75
2023/12/21 05:54:45;;;;;;;1.30;1.20;;;6.60;99.90;;;;;;5092503;28;20229;-79
2023/12/21 05:57:13;;;;;;;1.37;1.30;;;6.70;99.90;;;;;;5084339;28;20691;-79
2023/12/21 05:59:40;;;;;;;1.83;1.20;;;6.70;99.90;;;;;;5088442;28;20545;-76
2023/12/21 06:02:08;;;;;;;2.97;1.40;;;6.70;99.90;;;;;;5088225;28;20200;-76
2023/12/21 06:04:35;;;;;;;1.40;1.30;;;6.70;99.90;;;;;;5086202;28;20271;-75
2023/12/21 06:07:04;;;;;;;1.50;1.40;;;6.70;99.90;;;;;;5084046;28;20289;-74
2023/12/21 06:09:33;;;;;;;4.40;1.67;;;6.80;99.90;;;;;;5087947;28;20272;-76
2023/12/21 06:12:00;;;;;;;2.87;1.50;;;6.80;99.90;;;;;;5088338;28;20200;-77
2023/12/21 06:14:27;;;;;;;1.00;0.97;;;6.80;99.90;;;;;;5087057;28;20196;-77
2023/12/21 06:16:54;;;;;;;1.20;1.10;;;6.80;99.90;;;;;;5078453;28;20204;-75
2023/12/21 06:19:21;;;;;;;1.30;1.20;;;6.80;99.90;;;;;;5088902;28;20249;-76
2023/12/21 06:21:48;;;;;;;1.13;1.10;;;6.80;99.90;;;;;;5089369;28;20208;-76
2023/12/21 06:24:17;;;;;;;0.73;0.73;;;6.80;99.90;;;;;;5090312;28;20249;-76
2023/12/21 06:26:44;;;;;;;0.90;0.80;;;6.80;99.90;;;;;;5083584;28;20197;-75
2023/12/21 06:29:14;;;;;;;0.93;0.93;;;6.80;99.90;;;;;;5090250;28;20203;-75
2023/12/21 06:31:41;;;;;;;2.23;1.07;;;6.80;99.90;;;;;;5077116;28;20231;-76
2023/12/21 06:34:11;;;;;;;4.10;1.27;;;6.80;99.90;;;;;;5092637;28;20197;-78
2023/12/21 06:36:38;;;;;;;1.27;1.10;;;6.80;99.90;;;;;;5094235;28;20224;-80
2023/12/21 06:39:05;;;;;;;2.33;1.70;;;6.70;99.90;;;;;;5085487;28;20345;-79
2023/12/21 06:41:33;;;;;;;2.70;1.90;;;6.70;99.90;;;;;;5083502;28;20315;-80
2023/12/21 06:44:01;;;;;;;1.53;1.40;;;6.70;99.90;;;;;;5076406;28;20613;-76
2023/12/21 06:46:28;;;;;;;1.37;1.00;;;6.70;99.90;;;;;;5074864;28;20746;-77
2023/12/21 06:48:55;;;;;;;2.07;1.20;;;6.60;99.90;;;;;;5082024;28;20255;-77
2023/12/21 06:51:28;;;;;;;1.30;1.20;;;6.60;99.90;;;;;;5082212;28;20689;-77
2023/12/21 06:53:55;;;;;;;1.33;1.23;;;6.50;99.90;;;;;;5081313;28;20286;-75
2023/12/21 06:56:22;;;;;;;1.60;1.50;;;6.60;99.90;;;;;;5079961;28;20217;-74
2023/12/21 06:58:53;;;;;;;1.53;1.30;;;6.60;99.90;;;;;;5081361;28;20201;-73
2023/12/21 07:01:26;;;;;;;2.23;1.40;;;7.30;99.90;;;;;;5073753;28;20180;-73
2023/12/21 07:03:53;;;;;;;2.00;1.33;;;6.60;99.90;;;;;;5079306;28;20195;-74
2023/12/21 07:06:20;;;;;;;1.20;1.10;;;6.60;99.90;;;;;;5080543;28;20204;-74
2023/12/21 07:08:47;;;;;;;1.20;1.10;;;6.60;99.90;;;;;;5073581;28;20232;-73
2023/12/21 07:11:14;;;;;;;3.97;1.53;;;6.60;99.90;;;;;;5079508;28;20184;-73
2023/12/21 07:13:42;;;;;;;1.30;1.10;;;6.60;99.90;;;;;;5074914;28;20622;-75
2023/12/21 07:16:15;;;;;;;2.10;1.50;;;6.60;99.90;;;;;;5084845;28;20681;-74
2023/12/21 07:18:42;;;;;;;1.50;1.30;;;6.70;99.90;;;;;;5075383;28;20192;-73
2023/12/21 07:21:10;;;;;;;1.10;1.10;;;6.70;99.90;;;;;;5086229;28;20261;-74
2023/12/21 07:23:38;;;;;;;3.13;0.90;;;6.70;99.90;;;;;;5082583;28;20290;-74
2023/12/21 07:26:05;;;;;;;1.13;1.10;;;6.70;99.90;;;;;;5091282;28;20548;-74
2023/12/21 07:28:32;;;;;;;1.57;1.20;;;6.70;99.90;;;;;;5083193;28;20207;-75
2023/12/21 07:31:00;;;;;;;1.33;1.23;;;6.80;99.90;;;;;;5083227;28;20458;-74
2023/12/21 07:33:28;;;;;;;1.20;1.10;;;6.80;99.90;;;;;;5080961;28;20818;-74
2023/12/21 07:35:55;;;;;;;1.33;1.30;;;6.80;99.90;;;;;;5084345;28;20235;-74
2023/12/21 07:38:22;;;;;;;1.17;1.17;;;6.80;99.90;;;;;;5069800;28;20322;-74
2023/12/21 07:40:51;;;;;;;1.10;1.00;;;6.80;99.90;;;;;;5086602;28;20639;-74
2023/12/21 07:43:18;;;;;;;1.10;0.90;;;6.80;99.90;;;;;;5088009;28;20201;-74
2023/12/21 07:45:46;;;;;;;0.90;0.90;;;6.80;99.90;;;;;;5085428;28;20266;-73
2023/12/21 07:48:13;;;;;;;1.10;1.00;;;6.80;99.90;;;;;;5078627;28;20636;-74
2023/12/21 07:50:42;;;;;;;1.23;0.90;;;6.80;99.90;;;;;;5072225;28;20231;-74
2023/12/21 07:53:09;;;;;;;1.10;1.00;;;6.80;99.90;;;;;;5079446;28;20681;-74
2023/12/21 07:55:36;;;;;;;0.80;0.80;;;6.80;99.90;;;;;;5088664;28;20537;-74
2023/12/21 07:58:05;;;;;;;1.40;1.10;;;6.80;99.90;;;;;;5086383;28;20224;-75
2023/12/21 08:00:32;;;;;;;1.60;1.10;;;6.80;99.90;;;;;;5085188;28;20216;-74
2023/12/21 08:02:59;;;;;;;1.30;1.20;;;6.80;99.90;;;;;;5086033;28;20196;-74
2023/12/21 08:05:26;;;;;;;1.97;1.27;;;6.80;99.90;;;;;;5083399;28;20204;-74
2023/12/21 08:07:55;;;;;;;1.40;1.30;;;6.80;99.90;;;;;;5081202;28;20526;-75
2023/12/21 08:10:22;;;;;;;1.10;1.10;;;6.80;99.90;;;;;;5092397;28;20192;-74
2023/12/21 08:12:49;;;;;;;1.57;1.47;;;6.80;99.90;;;;;;5087877;28;20223;-74
2023/12/21 08:15:16;;;;;;;1.40;1.30;;;6.80;99.90;;;;;;5071556;28;20205;-74
2023/12/21 08:17:44;;;;;;;1.10;0.90;;;6.80;99.90;;;;;;5079117;28;20221;-77
2023/12/21 08:20:15;;;;;;;1.07;1.07;;;6.80;99.90;;;;;;5083917;28;20867;-77
2023/12/21 08:22:43;;;;;;;1.53;1.30;;;6.80;99.90;;;;;;5082134;28;20207;-77
2023/12/21 08:25:12;;;;;;;1.27;1.17;;;6.80;99.90;;;;;;5089943;28;20275;-77
2023/12/21 08:27:41;;;;;;;1.40;1.30;;;6.80;99.90;;;;;;5092099;28;20216;-77
2023/12/21 08:30:09;;;;;;;1.60;1.50;;;6.80;99.90;;;;;;5079443;28;20304;-77
2023/12/21 08:32:39;;;;;;;2.30;1.30;;;6.80;99.90;;;;;;5078551;28;20250;-77
2023/12/21 08:35:07;;;;;;;2.10;1.23;;;6.80;99.90;;;;;;5079093;28;20189;-77
2023/12/21 08:37:34;;;;;;;1.40;1.27;;;6.80;99.90;;;;;;5084200;28;20266;-77
2023/12/21 08:40:01;;;;;;;2.07;1.17;;;6.80;99.90;;;;;;5086703;28;20207;-77
2023/12/21 08:42:30;;;;;;;1.20;1.10;;;6.80;99.90;;;;;;5079151;28;20238;-75
2023/12/21 08:45:04;;;;;;;1.20;1.17;;;6.80;99.90;;;;;;5086326;28;20219;-76
2023/12/21 08:47:32;;;;;;;1.57;1.20;;;6.80;99.90;;;;;;5081671;28;20311;-75
2023/12/21 08:50:03;;;;;;;1.00;0.93;;;6.80;99.90;;;;;;5085311;28;20223;-75
2023/12/21 08:52:38;;;;;;;1.83;1.30;;;6.80;99.90;;;;;;5091511;28;20204;-77
2023/12/21 08:55:08;;;;;;;1.40;1.30;;;6.80;99.90;;;;;;5092718;28;20227;-78
2023/12/21 08:57:37;;;;;;;1.77;1.37;;;6.80;99.90;;;;;;5105573;27;20307;-78
2023/12/21 09:00:05;;;;;;;1.10;1.00;;;6.80;99.90;;;;;;5109730;28;20214;-77
2023/12/21 09:02:34;;;;;;;1.43;1.33;;;6.80;99.90;;;;;;5114154;27;20722;-78
2023/12/21 09:05:02;;;;;;;1.50;1.40;;;6.80;99.90;;;;;;5102554;28;20285;-78
2023/12/21 09:07:29;;;;;;;1.33;1.00;;;6.80;99.90;;;;;;5109797;27;20224;-78
2023/12/21 09:09:56;;;;;;;3.33;1.27;;;6.80;99.90;;;;;;5093302;28;20199;-78
2023/12/21 09:12:24;;;;;;;1.27;1.10;;;6.80;99.90;;;;;;5104574;28;20238;-77
2023/12/21 09:14:52;;;;;;;2.60;1.80;;;6.90;99.90;;;;;;5096440;28;20249;-77
2023/12/21 09:17:21;;;;;;;1.40;1.30;;;6.80;99.90;;;;;;5102972;28;20200;-77
2023/12/21 09:20:14;;;;;;;2.90;1.20;;;6.90;99.90;;;;;;5110905;28;20275;-78
2023/12/21 09:22:45;;;;;;;1.07;1.00;;;6.80;99.90;;;;;;5083989;28;20199;-77
2023/12/21 09:25:12;;;;;;;1.50;1.20;;;6.80;99.90;;;;;;5099298;28;20200;-77
2023/12/21 09:27:39;;;;;;;1.30;1.20;;;6.80;99.90;;;;;;5082459;28;20246;-77
2023/12/21 09:30:09;;;;;;;1.07;1.07;;;6.70;99.90;;;;;;5083377;28;20629;-77
2023/12/21 09:32:36;;;;;;;1.20;1.10;;;6.80;99.90;;;;;;5102883;27;20184;-77
2023/12/21 09:35:03;;;;;;;1.40;1.30;;;6.80;99.90;;;;;;5104175;28;20372;-78
2023/12/21 09:37:30;;;;;;;3.13;1.43;;;6.70;99.90;;;;;;5084645;28;20216;-77
2023/12/21 09:39:58;;;;;;;1.47;1.20;;;6.80;99.90;;;;;;5098714;28;20197;-78
2023/12/21 09:42:28;;;;;;;2.23;1.70;;;6.80;99.90;;;;;;5104427;28;20207;-78
2023/12/21 09:44:56;;;;;;;3.03;2.00;;;6.80;99.90;;;;;;5083987;28;20200;-78
2023/12/21 09:47:29;;;;;;;3.30;1.70;;;6.80;99.90;;;;;;5093716;27;20525;-78
2023/12/21 09:50:04;;;;;;;2.57;1.93;;;6.80;99.90;;;;;;5110114;28;20223;-78
2023/12/21 09:52:33;;;;;;;1.80;1.70;;;6.90;99.90;;;;;;5092595;27;20708;-78
2023/12/21 09:55:01;;;;;;;2.73;1.50;;;6.90;99.90;;;;;;5091590;28;20215;-78
2023/12/21 09:57:29;;;;;;;1.60;1.50;;;6.90;99.90;;;;;;5108888;28;20208;-78
2023/12/21 09:59:58;;;;;;;2.23;1.63;;;6.90;99.90;;;;;;5111434;28;20514;-78
2023/12/21 10:02:30;;;;;;;1.97;1.60;;;6.90;99.90;;;;;;5111953;27;20199;-78
2023/12/21 10:04:57;;;;;;;1.43;1.40;;;6.40;99.90;;;;;;5106314;28;20331;-78
2023/12/21 10:07:26;;;;;;;1.80;1.70;;;6.90;99.90;;;;;;5088760;27;20211;-78
2023/12/21 10:09:53;;;;;;;1.83;1.63;;;7.40;99.90;;;;;;5087939;28;20204;-78
2023/12/21 10:12:20;;;;;;;1.47;1.37;;;6.90;99.90;;;;;;5096447;28;20283;-78
2023/12/21 10:14:58;;;;;;;1.50;1.40;;;6.90;99.90;;;;;;5100036;28;20602;-79
2023/12/21 10:17:27;;;;;;;2.33;1.73;;;7.00;99.90;;;;;;5088991;28;20620;-77
2023/12/21 10:19:54;;;;;;;1.80;1.70;;;7.00;99.90;;;;;;5107142;28;20192;-78
2023/12/21 10:22:22;;;;;;;2.30;1.90;;;6.90;99.90;;;;;;5107367;27;20286;-78
2023/12/21 10:24:51;;;;;;;2.00;1.60;;;6.90;99.90;;;;;;5113488;27;20195;-78
2023/12/21 10:27:21;;;;;;;1.50;1.40;;;7.00;99.90;;;;;;5091015;28;20294;-78
2023/12/21 10:29:55;;;;;;;1.83;1.50;;;6.90;99.90;;;;;;5109592;28;20245;-78
2023/12/21 10:32:23;;;;;;;1.47;1.30;;;6.90;99.90;;;;;;5091389;27;20229;-78
2023/12/21 10:35:06;;;;;;;2.10;1.70;;;6.90;99.90;;;;;;5108738;28;20375;-78
2023/12/21 10:37:33;;;;;;;1.53;1.43;;;6.90;99.90;;;;;;5113042;27;20203;-78
2023/12/21 10:40:13;;;;;;;2.57;1.93;;;6.90;99.90;;;;;;5093553;28;20219;-78
2023/12/21 10:42:46;;;;;;;2.50;2.10;;;6.80;99.90;;;;;;5088978;28;20730;-77
2023/12/21 10:45:16;;;;;;;2.13;1.93;;;6.90;99.90;;;;;;5108724;28;20245;-78
2023/12/21 10:47:49;;;;;;;2.50;1.83;;;6.90;99.90;;;;;;5106242;28;20201;-78
2023/12/21 10:50:19;;;;;;;1.67;1.57;;;6.90;99.90;;;;;;5075139;28;20693;-78
2023/12/21 10:52:50;;;;;;;2.60;2.40;;;6.90;99.90;;;;;;5095886;28;20207;-78
2023/12/21 10:55:18;;;;;;;2.40;2.20;;;6.90;99.90;;;;;;5103571;28;20198;-78
2023/12/21 10:57:48;;;;;;;3.93;2.37;;;6.90;99.90;;;;;;5101798;28;20594;-77
2023/12/21 11:00:16;;;;;;;2.90;2.40;;;6.90;99.90;;;;;;5099044;28;20203;-77
2023/12/21 11:02:47;;;;;;;2.13;1.93;;;6.90;99.90;;;;;;5103600;27;20231;-77
2023/12/21 11:05:22;;;;;;;2.50;2.23;;;6.90;99.90;;;;;;5079282;28;20618;-77
2023/12/21 11:07:50;;;;;;;2.57;2.33;;;6.90;99.90;;;;;;5099320;27;20682;-77
2023/12/21 11:10:18;;;;;;;3.03;1.97;;;6.90;99.90;;;;;;5092127;28;20558;-77
2023/12/21 11:12:46;;;;;;;3.07;2.40;;;6.90;99.90;;;;;;5074963;27;20262;-77
2023/12/21 11:15:15;;;;;;;3.10;2.10;;;6.90;99.90;;;;;;5105488;28;20191;-77
2023/12/21 11:17:45;;;;;;;4.90;2.70;;;6.90;99.90;;;;;;5108684;28;20207;-78
2023/12/21 11:20:17;;;;;;;2.63;2.43;;;6.90;99.90;;;;;;5096864;28;20247;-78
2023/12/21 11:22:46;;;;;;;2.33;2.13;;;7.00;99.90;;;;;;5110296;28;20215;-77
2023/12/21 11:25:13;;;;;;;3.20;2.90;;;7.00;99.90;;;;;;5120229;27;20192;-78
2023/12/21 11:27:41;;;;;;;2.73;2.50;;;6.90;99.90;;;;;;5090309;28;20207;-78
2023/12/21 11:30:12;;;;;;;2.73;2.53;;;6.90;99.90;;;;;;5098207;28;20668;-78
2023/12/21 11:32:40;;;;;;;4.70;3.10;;;7.00;99.90;;;;;;5092337;28;20557;-78
2023/12/21 11:35:23;;;;;;;2.83;2.63;;;7.00;99.90;;;;;;5090507;28;20200;-77
2023/12/21 11:37:54;;;;;;;3.40;3.10;;;7.00;99.90;;;;;;5100907;28;20196;-78
2023/12/21 11:40:25;;;;;;;3.87;3.27;;;7.10;99.90;;;;;;5087308;28;20322;-77
2023/12/21 11:42:54;;;;;;;3.70;3.40;;;7.00;99.90;;;;;;5097268;28;20236;-77
2023/12/21 11:45:24;;;;;;;3.63;3.17;;;7.10;99.90;;;;;;5081034;28;20635;-76
2023/12/21 11:47:54;;;;;;;4.03;3.63;;;7.00;99.90;;;;;;5079184;28;20544;-77
2023/12/21 11:50:24;;;;;;;6.03;4.37;;;7.00;99.90;;;;;;5099639;28;21062;-77
2023/12/21 11:53:06;;;;;;;7.83;4.00;;;7.00;99.90;;;;;;5081480;28;20204;-76
2023/12/21 11:55:39;;;;;;;9.37;5.57;;;7.00;99.90;;;;;;5078627;28;20600;-77
2023/12/21 11:58:15;;;;;;;7.43;5.20;;;7.00;99.90;;;;;;5088498;28;20224;-76
2023/12/21 12:00:44;;;;;;;9.70;5.97;;;7.00;99.90;;;;;;5098942;28;20521;-77
2023/12/21 12:03:12;;;;;;;7.10;5.20;;;7.00;99.90;;;;;;5090445;28;20615;-77
2023/12/21 12:05:39;;;;;;;8.20;4.27;;;7.00;99.90;;;;;;5104187;28;20260;-77
2023/12/21 12:08:08;;;;;;;8.50;4.70;;;6.90;99.90;;;;;;5072805;28;20196;-77
2023/12/21 12:10:35;;;;;;;7.37;4.70;;;6.90;99.90;;;;;;5094714;28;20545;-77
2023/12/21 12:13:03;;;;;;;7.13;4.77;;;6.90;99.90;;;;;;5107347;28;20196;-78
2023/12/21 12:15:31;;;;;;;9.83;4.83;;;6.90;99.90;;;;;;5103868;28;20511;-76
2023/12/21 12:18:00;;;;;;;8.53;5.40;;;6.90;99.90;;;;;;5096872;28;20235;-77
2023/12/21 12:20:28;;;;;;;10.40;5.97;;;6.90;99.90;;;;;;5091275;28;20223;-76
2023/12/21 12:22:55;;;;;;;7.23;5.00;;;6.90;99.90;;;;;;5098175;28;20189;-77
2023/12/21 12:25:24;;;;;;;10.73;5.70;;;6.90;99.90;;;;;;5089589;28;20256;-76
2023/12/21 12:27:51;;;;;;;7.37;5.17;;;6.90;99.90;;;;;;5106344;28;20224;-76
2023/12/21 12:30:19;;;;;;;5.30;4.50;;;6.90;99.90;;;;;;5095992;28;20639;-76
2023/12/21 12:32:47;;;;;;;4.73;4.20;;;6.80;99.90;;;;;;5101772;28;20227;-77
2023/12/21 12:35:14;;;;;;;6.83;5.00;;;6.90;99.90;;;;;;5100614;28;20203;-76
2023/12/21 12:37:42;;;;;;;8.07;5.07;;;6.90;99.90;;;;;;5102148;28;20219;-76
2023/12/21 12:40:11;;;;;;;7.27;5.30;;;6.90;99.90;;;;;;5107163;28;20213;-77
2023/12/21 12:42:41;;;;;;;7.37;5.47;;;6.90;99.90;;;;;;5105186;28;20200;-77
2023/12/21 12:45:15;;;;;;;10.83;5.57;;;7.00;99.90;;;;;;5104680;28;20199;-76
2023/12/21 12:47:43;;;;;;;11.83;5.93;;;7.00;99.90;;;;;;5100330;28;20287;-76
2023/12/21 12:50:12;;;;;;;10.23;5.90;;;7.00;99.90;;;;;;5093373;28;20708;-77
2023/12/21 12:52:41;;;;;;;9.40;5.63;;;6.90;99.90;;;;;;5105258;28;20196;-76
2023/12/21 12:55:11;;;;;;;9.20;5.73;;;6.90;99.90;;;;;;5109581;28;20200;-76
2023/12/21 12:57:46;;;;;;;8.80;5.20;;;7.00;99.90;;;;;;5091257;28;20207;-77
2023/12/21 13:00:16;;;;;;;7.43;5.70;;;7.00;99.90;;;;;;5112369;27;20195;-76
2023/12/21 13:02:43;;;;;;;8.50;5.47;;;7.00;99.90;;;;;;5086789;28;20203;-76
2023/12/21 13:05:11;;;;;;;11.67;6.50;;;7.00;99.90;;;;;;5100626;27;20246;-77